createdAt,value
2023-05-09T00:04:42.882Z,15.30
2023-05-09T00:09:52.206Z,14.50
2023-05-09T00:15:02.584Z,15.50
2023-05-09T00:20:30.727Z,16.10
2023-05-09T00:25:36.943Z,14.40
2023-05-09T00:36:39.071Z,15.70
2023-05-09T00:42:03.948Z,14.20
2023-05-09T00:47:31.657Z,14.50
2023-05-09T00:53:31.611Z,14.30
2023-05-09T00:59:34.571Z,14.20
2023-05-09T01:10:06.054Z,14.10
2023-05-09T01:15:18.823Z,14.10
2023-05-09T01:20:30.569Z,14.00
2023-05-09T01:25:53.416Z,14.00
2023-05-09T01:31:00.150Z,13.90
2023-05-09T01:36:06.613Z,14.10
2023-05-09T01:41:10.467Z,14.10
2023-05-09T01:46:22.756Z,14.10
2023-05-09T01:51:27.373Z,14.20
2023-05-09T01:56:33.060Z,14.00
2023-05-09T02:01:38.924Z,14.00
2023-05-09T02:06:48.225Z,13.90
2023-05-09T02:11:53.244Z,13.80
2023-05-09T02:17:02.006Z,13.80
2023-05-09T02:22:06.351Z,13.80
2023-05-09T02:27:11.006Z,13.70
2023-05-09T02:32:20.898Z,13.60
2023-05-09T02:37:24.866Z,13.60
2023-05-09T02:42:30.301Z,13.60
2023-05-09T02:47:38.290Z,13.60
2023-05-09T02:52:43.279Z,13.50
2023-05-09T02:57:58.849Z,13.50
2023-05-09T03:03:18.740Z,13.40
2023-05-09T03:08:23.925Z,13.40
2023-05-09T03:13:28.108Z,13.30
2023-05-09T03:18:37.294Z,13.30
2023-05-09T03:23:44.103Z,13.40
2023-05-09T03:28:49.251Z,13.40
2023-05-09T03:33:57.756Z,13.40
2023-05-09T03:39:04.118Z,13.40
2023-05-09T03:44:10.100Z,13.40
2023-05-09T03:49:16.984Z,13.40
2023-05-09T03:54:34.237Z,13.30
2023-05-09T03:59:41.047Z,13.50
2023-05-09T04:04:47.641Z,13.50
2023-05-09T04:09:56.872Z,13.50
2023-05-09T04:15:02.625Z,13.50
2023-05-09T04:20:15.186Z,13.50
2023-05-09T04:25:21.374Z,13.50
2023-05-09T04:30:33.014Z,13.40
2023-05-09T04:35:41.896Z,13.40
2023-05-09T04:40:48.089Z,13.60
2023-05-09T04:45:53.160Z,13.70
2023-05-09T04:50:59.855Z,13.80
2023-05-09T04:56:06.160Z,14.00
2023-05-09T05:01:11.985Z,14.00
2023-05-09T05:06:17.925Z,14.20
2023-05-09T05:11:22.240Z,14.40
2023-05-09T05:16:27.563Z,14.60
2023-05-09T05:21:34.087Z,14.70
2023-05-09T05:26:40.889Z,14.90
2023-05-09T05:31:45.931Z,14.90
2023-05-09T05:36:51.497Z,14.80
2023-05-09T05:41:58.314Z,15.00
2023-05-09T05:47:03.856Z,15.00
2023-05-09T05:52:11.412Z,14.40
2023-05-09T05:57:17.024Z,14.90
2023-05-09T06:02:21.573Z,14.90
2023-05-09T06:07:27.430Z,15.20
2023-05-09T06:12:32.511Z,15.70
2023-05-09T06:17:43.216Z,15.90
2023-05-09T06:22:51.564Z,16.00
2023-05-09T06:28:00.981Z,16.00
2023-05-09T06:33:05.449Z,16.30
2023-05-09T06:38:12.733Z,16.40
2023-05-09T06:43:19.030Z,16.90
2023-05-09T06:48:23.961Z,16.70
2023-05-09T06:59:05.117Z,16.80
2023-05-09T07:04:15.004Z,17.00
2023-05-09T07:09:20.790Z,16.70
2023-05-09T07:14:27.129Z,17.50
2023-05-09T07:19:30.732Z,17.50
2023-05-09T07:50:19.932Z,18.70
2023-05-09T07:55:24.809Z,18.80
2023-05-09T08:00:31.596Z,18.70
2023-05-09T08:05:37.253Z,19.20
2023-05-09T08:10:41.283Z,19.40
2023-05-09T08:15:44.965Z,19.00
2023-05-09T08:20:51.173Z,18.80
2023-05-09T08:25:56.006Z,19.10
2023-05-09T08:31:03.888Z,19.80
2023-05-09T08:36:11.950Z,20.20
2023-05-09T08:41:16.492Z,20.70
2023-05-09T08:46:20.544Z,20.80
2023-05-09T08:51:36.826Z,20.20
2023-05-09T08:56:44.445Z,20.50
2023-05-09T09:01:48.284Z,20.80
2023-05-09T09:06:54.758Z,20.00
2023-05-09T09:11:59.799Z,19.90
2023-05-09T09:17:06.642Z,20.10
2023-05-09T09:22:14.402Z,19.90
2023-05-09T09:27:20.128Z,20.00
2023-05-09T09:32:24.271Z,20.10
2023-05-09T09:37:33.428Z,20.10
2023-05-09T09:42:46.254Z,19.90
2023-05-09T09:47:51.051Z,19.70
2023-05-09T09:52:57.295Z,19.90
2023-05-09T09:58:01.585Z,20.60
2023-05-09T10:03:06.824Z,21.00
2023-05-09T10:08:14.203Z,21.50
2023-05-09T10:13:18.369Z,21.90
2023-05-09T10:18:24.209Z,23.10
2023-05-09T10:23:30.352Z,24.00
2023-05-09T10:28:38.417Z,22.90
2023-05-09T10:33:45.838Z,22.30
2023-05-09T10:38:54.398Z,21.80
2023-05-09T10:44:00.189Z,21.30
2023-05-09T10:49:06.825Z,20.70
2023-05-09T10:54:30.695Z,20.40
2023-05-09T10:59:41.490Z,20.20
2023-05-09T11:04:46.042Z,20.10
2023-05-09T11:09:56.817Z,19.90
2023-05-09T11:15:08.221Z,19.70
2023-05-09T11:20:13.402Z,20.60
2023-05-09T11:25:22.322Z,21.60
2023-05-09T11:30:27.563Z,22.40
2023-05-09T11:35:40.679Z,22.10
2023-05-09T11:40:46.587Z,22.20
2023-05-09T11:45:50.553Z,21.80
2023-05-09T11:50:55.464Z,21.50
2023-05-09T11:56:03.430Z,21.90
2023-05-09T12:01:11.813Z,22.30
2023-05-09T12:06:18.732Z,22.30
2023-05-09T12:11:25.392Z,21.60
2023-05-09T12:16:42.464Z,22.10
2023-05-09T12:21:48.117Z,21.80
2023-05-09T12:26:54.102Z,21.10
2023-05-09T12:31:58.338Z,20.20
2023-05-09T12:37:06.575Z,19.10
2023-05-09T12:42:15.151Z,18.60
2023-05-09T12:47:19.149Z,18.80
2023-05-09T12:52:23.486Z,18.80
2023-05-09T12:57:31.577Z,18.70
2023-05-09T13:02:36.747Z,18.80
2023-05-09T13:07:44.227Z,19.00
2023-05-09T13:12:54.046Z,18.80
2023-05-09T13:17:58.254Z,18.40
2023-05-09T13:23:03.847Z,18.10
2023-05-09T13:28:10.038Z,17.80
2023-05-09T13:33:25.362Z,17.40
2023-05-09T13:38:31.101Z,17.30
2023-05-09T13:43:37.058Z,17.30
2023-05-09T13:48:42.861Z,17.10
2023-05-09T13:53:46.513Z,16.90
2023-05-09T13:58:51.400Z,16.90
2023-05-09T14:03:55.165Z,16.90
2023-05-09T14:08:58.802Z,16.80
2023-05-09T14:14:04.136Z,16.70
2023-05-09T14:19:10.814Z,16.50
2023-05-09T14:24:16.583Z,16.40
2023-05-09T14:30:17.706Z,16.30
2023-05-09T14:35:23.967Z,16.40
2023-05-09T14:40:31.873Z,16.10
2023-05-09T14:45:38.740Z,16.20
2023-05-09T14:50:44.826Z,16.30
2023-05-09T14:55:49.255Z,16.30
2023-05-09T15:00:54.741Z,16.30
2023-05-09T15:05:59.877Z,16.20
2023-05-09T15:11:03.800Z,16.40
2023-05-09T15:16:09.103Z,16.20
2023-05-09T15:21:18.576Z,16.10
2023-05-09T15:26:22.715Z,16.00
2023-05-09T15:31:27.696Z,15.90
2023-05-09T15:36:34.387Z,15.70
2023-05-09T15:41:39.018Z,15.50
2023-05-09T15:46:47.237Z,15.50
2023-05-09T15:51:56.360Z,15.40
2023-05-09T15:57:00.147Z,15.30
2023-05-09T16:02:05.234Z,15.30
2023-05-09T16:07:11.418Z,15.40
2023-05-09T16:12:17.141Z,15.50
2023-05-09T16:17:22.373Z,15.60
2023-05-09T16:22:28.285Z,15.70
2023-05-09T16:27:34.682Z,15.40
2023-05-09T16:32:38.823Z,15.40
2023-05-09T16:37:46.983Z,15.10
2023-05-09T16:42:51.962Z,14.80
2023-05-09T16:48:00.741Z,14.40
2023-05-09T16:53:08.913Z,14.50
2023-05-09T16:58:36.602Z,14.10
2023-05-09T17:03:43.899Z,13.70
2023-05-09T17:08:52.303Z,13.60
2023-05-09T17:13:56.424Z,13.40
2023-05-09T17:19:02.027Z,13.40
2023-05-09T17:24:10.520Z,13.30
2023-05-09T17:29:17.240Z,13.30
2023-05-09T17:34:21.772Z,13.30
2023-05-09T17:39:27.280Z,13.30
2023-05-09T17:44:31.022Z,13.50
2023-05-09T17:49:40.116Z,13.50
2023-05-09T17:54:52.295Z,13.50
2023-05-09T17:59:57.166Z,13.40
2023-05-09T18:05:01.472Z,13.30
2023-05-09T18:10:08.066Z,13.30
2023-05-09T18:15:18.147Z,13.30
2023-05-09T18:20:22.484Z,13.20
2023-05-09T18:25:28.293Z,13.30
2023-05-09T18:30:32.322Z,13.30
2023-05-09T18:35:35.932Z,13.20
2023-05-09T18:40:42.428Z,13.30
2023-05-09T18:45:48.215Z,13.30
2023-05-09T18:50:53.273Z,13.30
2023-05-09T18:56:00.183Z,13.30
2023-05-09T19:01:05.129Z,13.30
2023-05-09T19:06:10.878Z,13.30
2023-05-09T19:11:18.693Z,13.30
2023-05-09T19:16:26.731Z,13.20
2023-05-09T19:21:30.514Z,13.20
2023-05-09T19:26:39.333Z,13.10
2023-05-09T19:31:44.564Z,13.10
2023-05-09T19:36:53.950Z,13.00
2023-05-09T19:42:00.779Z,13.00
2023-05-09T19:47:05.377Z,13.00
2023-05-09T19:52:09.368Z,12.90
2023-05-09T19:57:14.656Z,12.80
2023-05-09T20:02:22.914Z,12.70
2023-05-09T20:07:27.059Z,12.80
2023-05-09T20:12:32.284Z,12.80
2023-05-09T20:17:36.204Z,12.70
2023-05-09T20:22:39.945Z,12.70
2023-05-09T20:27:44.916Z,12.70
2023-05-09T20:32:53.994Z,12.80
2023-05-09T20:38:01.868Z,12.70
2023-05-09T20:43:06.859Z,12.80
2023-05-09T20:48:10.694Z,12.80
2023-05-09T20:53:16.582Z,12.80
2023-05-09T20:58:29.137Z,12.80
2023-05-09T21:03:32.959Z,12.70
2023-05-09T21:08:36.774Z,12.70
2023-05-09T21:13:42.040Z,12.70
2023-05-09T21:18:49.289Z,12.60
2023-05-09T21:24:11.152Z,12.50
2023-05-09T21:29:17.289Z,12.50
2023-05-09T21:34:25.528Z,12.50
2023-05-09T21:39:33.565Z,12.50
2023-05-09T21:44:39.917Z,12.50
2023-05-09T21:49:43.300Z,12.50
2023-05-09T21:54:47.003Z,12.50
2023-05-09T21:59:58.844Z,12.60
2023-05-09T22:05:08.012Z,12.60
2023-05-09T22:10:22.655Z,12.50
2023-05-09T22:15:32.673Z,12.60
2023-05-09T22:20:37.841Z,12.50
2023-05-09T22:25:46.200Z,12.60
2023-05-09T22:30:58.447Z,12.50
2023-05-09T22:36:05.635Z,12.50
2023-05-09T22:41:12.462Z,12.40
2023-05-09T22:46:18.454Z,12.50
2023-05-09T22:51:27.243Z,12.50
2023-05-09T22:56:31.153Z,12.50
2023-05-09T23:01:39.608Z,12.60
2023-05-09T23:06:44.852Z,12.50
2023-05-09T23:11:48.971Z,12.50
2023-05-09T23:17:01.855Z,12.50
2023-05-09T23:22:05.833Z,12.50
2023-05-09T23:27:09.753Z,12.40
2023-05-09T23:32:15.624Z,12.50
2023-05-09T23:37:19.230Z,12.50
2023-05-09T23:42:24.188Z,12.40
2023-05-09T23:47:32.786Z,12.40
2023-05-09T23:52:37.303Z,12.50
2023-05-09T23:57:41.075Z,12.40
